Time;durP1;ratioP1;P1;durP2;ratioP2;P2;SDS_P1;SDS_P2;PMS_P1;PMS_P2;Temp;Humidity;BMP_temperature;BMP_pressure;BME280_temperature;BME280_humidity;BME280_pressure;Samples;Min_cycle;Max_cycle;Signal;HPM_P1;HPM_P2
2021/09/18 00:01:26;;;;;;;12.90;9.60;;;;;;;15.66;72.25;98509.15;235895;1196;138528;-64
2021/09/18 00:06:29;;;;;;;12.20;8.90;;;;;;;15.64;71.96;98508.78;235882;1196;139474;-65
2021/09/18 00:11:33;;;;;;;13.00;9.70;;;;;;;15.64;72.03;98513.56;236055;1195;139389;-68
2021/09/18 00:16:36;;;;;;;17.30;10.70;;;;;;;15.66;72.06;98516.48;235590;1196;140072;-62
2021/09/18 00:21:40;;;;;;;15.80;10.50;;;;;;;15.69;72.23;98519.98;235864;1196;139492;-63
2021/09/18 00:26:43;;;;;;;13.20;9.90;;;;;;;15.69;72.30;98518.33;235844;1196;139546;-63
2021/09/18 00:31:46;;;;;;;14.30;10.00;;;;;;;15.69;72.08;98519.41;235186;1195;139502;-62
2021/09/18 00:36:49;;;;;;;13.70;10.00;;;;;;;15.74;72.09;98523.05;235888;1196;139488;-65
2021/09/18 00:41:52;;;;;;;13.00;10.70;;;;;;;15.76;72.20;98518.73;236262;1195;138758;-64
2021/09/18 00:46:56;;;;;;;17.60;11.00;;;;;;;15.77;72.05;98516.73;235935;1195;138640;-66
2021/09/18 00:52:00;;;;;;;12.10;8.40;;;;;;;15.77;71.89;98517.09;235903;1196;139259;-67
2021/09/18 00:57:03;;;;;;;11.10;8.80;;;;;;;15.70;71.75;98516.27;235396;1196;139354;-66
2021/09/18 01:02:07;;;;;;;11.00;7.80;;;;;;;15.74;71.94;98518.05;236087;1195;139196;-69
2021/09/18 01:07:10;;;;;;;11.50;9.10;;;;;;;15.71;71.80;98521.70;235809;1194;138577;-67
2021/09/18 01:12:13;;;;;;;9.10;8.20;;;;;;;15.63;71.60;98524.05;235470;1196;138911;-66
2021/09/18 01:17:17;;;;;;;11.70;8.20;;;;;;;15.59;71.75;98524.20;235550;1195;138608;-66
2021/09/18 01:22:26;;;;;;;11.00;7.60;;;;;;;15.55;71.90;98519.52;235624;1196;138996;-66
2021/09/18 01:27:29;;;;;;;12.20;9.20;;;;;;;15.54;71.72;98515.95;236017;1196;139066;-63
2021/09/18 01:32:32;;;;;;;11.50;10.10;;;;;;;15.49;71.98;98515.09;235507;1196;140021;-62
2021/09/18 01:37:39;;;;;;;11.30;9.30;;;;;;;15.49;72.12;98513.89;235783;1195;138951;-65
2021/09/18 01:42:43;;;;;;;12.40;8.90;;;;;;;15.42;71.76;98512.56;236113;1195;140419;-63
2021/09/18 01:47:49;;;;;;;11.50;9.60;;;;;;;15.35;72.01;98505.81;235323;1195;139510;-61
2021/09/18 01:52:54;;;;;;;18.60;10.60;;;;;;;15.31;72.11;98503.13;235638;1196;139170;-65
2021/09/18 01:58:00;;;;;;;16.20;10.70;;;;;;;15.26;72.07;98505.92;235587;1196;138700;-65
2021/09/18 02:03:07;;;;;;;13.10;8.90;;;;;;;15.25;72.18;98500.30;236001;1195;139135;-65
2021/09/18 02:08:14;;;;;;;9.00;7.80;;;;;;;15.17;72.23;98500.36;235824;1195;138971;-67
2021/09/18 02:13:17;;;;;;;11.20;7.90;;;;;;;15.18;72.12;98493.98;235699;1195;138532;-68
2021/09/18 02:18:20;;;;;;;13.20;8.10;;;;;;;15.19;72.33;98494.23;235602;1196;138268;-65
2021/09/18 02:23:24;;;;;;;15.30;8.00;;;;;;;15.19;72.32;98490.33;236114;1195;138373;-65
2021/09/18 02:28:27;;;;;;;9.40;6.60;;;;;;;15.17;72.10;98490.67;236172;1195;138435;-65
2021/09/18 02:33:30;;;;;;;9.00;6.30;;;;;;;15.13;72.07;98490.14;235695;1196;138871;-64
2021/09/18 02:38:33;;;;;;;9.80;6.00;;;;;;;15.15;72.11;98491.91;235592;1196;138402;-64
2021/09/18 02:43:36;;;;;;;6.20;2.80;;;;;;;15.13;72.14;98495.70;235883;1196;138253;-61
2021/09/18 02:48:39;;;;;;;5.10;2.80;;;;;;;15.08;71.76;98494.65;235887;1195;138754;-62
2021/09/18 02:53:59;;;;;;;6.00;2.40;;;;;;;14.98;71.45;98497.17;236097;1195;139018;-62
2021/09/18 02:59:02;;;;;;;4.10;3.10;;;;;;;14.98;71.61;98491.36;236070;1195;138843;-64
2021/09/18 03:04:05;;;;;;;6.90;3.40;;;;;;;14.94;71.54;98495.19;235964;1195;138877;-61
2021/09/18 03:09:08;;;;;;;6.80;3.30;;;;;;;14.89;71.43;98487.98;236129;1195;138516;-67
2021/09/18 03:14:11;;;;;;;4.30;2.30;;;;;;;14.85;71.52;98486.15;235942;1195;138224;-64
2021/09/18 03:19:14;;;;;;;3.70;1.90;;;;;;;14.82;71.50;98485.56;235973;1196;140690;-63
2021/09/18 03:24:18;;;;;;;6.20;2.00;;;;;;;14.82;71.44;98480.54;235216;1196;138810;-70
2021/09/18 03:29:20;;;;;;;45.80;29.30;;;;;;;14.83;71.37;98480.27;235692;1196;139029;-64
2021/09/18 03:34:23;;;;;;;25.30;19.70;;;;;;;14.81;71.23;98476.00;235977;1196;139113;-63
2021/09/18 03:39:27;;;;;;;2.10;1.90;;;;;;;14.79;71.34;98477.09;235752;1195;141794;-65
2021/09/18 03:44:30;;;;;;;4.70;1.80;;;;;;;14.80;71.20;98480.36;235796;1195;138938;-62
2021/09/18 03:49:33;;;;;;;4.70;2.60;;;;;;;14.81;71.20;98479.04;235793;1196;138928;-66
2021/09/18 03:54:36;;;;;;;3.10;2.80;;;;;;;14.82;71.20;98477.48;235704;1196;140479;-60
2021/09/18 03:59:39;;;;;;;4.20;3.00;;;;;;;14.81;71.23;98475.27;235851;1196;138825;-59
2021/09/18 04:04:42;;;;;;;4.50;3.10;;;;;;;14.77;71.16;98477.95;235961;1195;139419;-60
2021/09/18 04:09:45;;;;;;;30.20;22.30;;;;;;;14.75;71.10;98481.02;236153;1196;139583;-66
2021/09/18 04:14:48;;;;;;;5.60;3.10;;;;;;;14.79;71.35;98486.37;235943;1195;139199;-63
2021/09/18 04:19:51;;;;;;;6.40;3.80;;;;;;;15.00;72.07;98482.52;235215;1196;138126;-65
2021/09/18 04:24:55;;;;;;;5.20;3.60;;;;;;;15.26;72.29;98483.98;235920;1196;139257;-65
2021/09/18 04:29:58;;;;;;;4.60;3.40;;;;;;;15.39;71.61;98481.55;236219;1195;138915;-63
2021/09/18 04:35:00;;;;;;;6.60;3.70;;;;;;;15.23;70.52;98485.67;235747;1195;139840;-69
2021/09/18 04:40:04;;;;;;;5.10;3.30;;;;;;;15.10;70.61;98491.48;235748;1196;139057;-63
2021/09/18 04:45:08;;;;;;;5.70;4.10;;;;;;;14.98;70.47;98494.13;235656;1196;138453;-64
2021/09/18 04:50:11;;;;;;;6.20;4.20;;;;;;;14.89;70.69;98490.65;235248;1196;139959;-64
2021/09/18 04:55:14;;;;;;;4.80;3.30;;;;;;;14.82;70.76;98494.33;236038;1196;138399;-62
2021/09/18 05:00:17;;;;;;;4.40;2.90;;;;;;;14.80;70.66;98496.98;235937;1196;139810;-62
2021/09/18 05:05:21;;;;;;;7.20;4.00;;;;;;;14.81;70.82;98497.09;236141;1195;138746;-65
2021/09/18 05:10:24;;;;;;;5.90;3.90;;;;;;;14.81;70.80;98499.91;236033;1196;139191;-64
2021/09/18 05:15:28;;;;;;;7.50;4.60;;;;;;;14.83;70.76;98501.88;235775;1196;138329;-62
2021/09/18 05:20:33;;;;;;;7.00;3.90;;;;;;;14.80;70.90;98505.93;236044;1196;140572;-66
2021/09/18 05:25:36;;;;;;;6.80;4.60;;;;;;;14.82;70.77;98513.56;235554;1195;138866;-68
2021/09/18 05:30:39;;;;;;;9.60;5.60;;;;;;;14.85;70.89;98515.64;235952;1195;138875;-71
2021/09/18 05:35:42;;;;;;;7.60;4.70;;;;;;;14.87;70.98;98517.39;235445;1195;139091;-70
2021/09/18 05:40:46;;;;;;;7.20;4.60;;;;;;;14.84;70.77;98517.66;235995;1195;138298;-65
2021/09/18 05:45:49;;;;;;;7.60;4.30;;;;;;;14.83;70.63;98516.52;235655;1195;138334;-63
2021/09/18 05:50:52;;;;;;;9.90;3.70;;;;;;;14.84;70.78;98518.83;235825;1196;139229;-67
2021/09/18 05:55:55;;;;;;;6.10;4.10;;;;;;;14.88;70.77;98518.91;235493;1196;138598;-67
2021/09/18 06:00:58;;;;;;;8.20;4.30;;;;;;;14.92;70.58;98522.77;236004;1196;137985;-64
2021/09/18 06:06:02;;;;;;;7.80;4.30;;;;;;;14.92;70.58;98528.09;235953;1195;139402;-63
2021/09/18 06:11:06;;;;;;;9.10;4.60;;;;;;;14.89;70.40;98534.90;235674;1195;139516;-63
2021/09/18 06:16:09;;;;;;;5.40;4.00;;;;;;;14.88;70.38;98536.82;235905;1195;138745;-63
2021/09/18 06:21:12;;;;;;;4.80;3.60;;;;;;;14.87;70.31;98536.35;235819;1195;139443;-64
2021/09/18 06:26:16;;;;;;;8.50;4.60;;;;;;;14.90;70.18;98543.06;235867;1196;139246;-66
2021/09/18 06:31:19;;;;;;;5.00;4.00;;;;;;;14.93;70.10;98540.73;235382;1196;138341;-65
2021/09/18 06:36:23;;;;;;;5.30;4.10;;;;;;;14.91;70.17;98543.35;235274;1195;138728;-63
2021/09/18 06:41:25;;;;;;;7.00;4.20;;;;;;;14.84;69.83;98541.30;235930;1195;139681;-64
2021/09/18 06:46:30;;;;;;;7.40;4.60;;;;;;;14.84;69.98;98542.56;235930;1195;139599;-65
2021/09/18 06:51:33;;;;;;;6.00;4.30;;;;;;;14.89;70.24;98543.35;235632;1196;138877;-64
2021/09/18 06:56:36;;;;;;;7.80;4.50;;;;;;;14.89;69.81;98543.16;235852;1195;139557;-64
2021/09/18 07:01:39;;;;;;;5.10;4.40;;;;;;;14.82;69.70;98550.39;235486;1196;138942;-64
2021/09/18 07:06:42;;;;;;;5.40;4.10;;;;;;;14.75;69.71;98553.88;235382;1196;151437;-62
2021/09/18 07:11:45;;;;;;;6.10;4.10;;;;;;;14.74;69.79;98561.06;235865;1195;139118;-62
2021/09/18 07:16:49;;;;;;;7.90;4.20;;;;;;;14.75;69.74;98556.00;235859;1195;139034;-61
2021/09/18 07:21:52;;;;;;;6.10;4.90;;;;;;;14.79;69.91;98554.06;235939;1196;140048;-61
2021/09/18 07:26:55;;;;;;;7.30;5.00;;;;;;;14.82;69.88;98556.14;235852;1195;139411;-63
2021/09/18 07:31:58;;;;;;;7.80;5.00;;;;;;;14.80;69.95;98555.02;235879;1195;140664;-62
2021/09/18 07:37:01;;;;;;;8.40;4.80;;;;;;;14.80;69.84;98559.09;235989;1195;139104;-63
2021/09/18 07:42:04;;;;;;;7.20;5.50;;;;;;;14.78;69.60;98561.31;235936;1195;138686;-64
2021/09/18 07:47:08;;;;;;;8.10;5.70;;;;;;;14.77;69.73;98561.70;235895;1195;138727;-66
2021/09/18 07:52:11;;;;;;;8.40;5.70;;;;;;;14.78;69.79;98563.41;235845;1196;138499;-62
2021/09/18 07:57:14;;;;;;;7.90;5.30;;;;;;;14.78;69.92;98561.63;235496;1196;138431;-63
2021/09/18 08:02:17;;;;;;;6.30;5.20;;;;;;;14.80;69.99;98565.89;236036;1195;139324;-63
2021/09/18 08:07:21;;;;;;;9.20;5.10;;;;;;;14.83;69.93;98570.67;235635;1196;138759;-61
2021/09/18 08:12:24;;;;;;;11.10;5.70;;;;;;;14.87;70.02;98573.02;235110;1196;138884;-62
2021/09/18 08:17:27;;;;;;;9.40;6.10;;;;;;;14.85;69.88;98571.53;235783;1196;138157;-64
2021/09/18 08:22:30;;;;;;;8.00;5.10;;;;;;;14.82;69.92;98571.69;235906;1196;138348;-62
2021/09/18 08:27:34;;;;;;;5.60;5.00;;;;;;;14.81;69.92;98573.19;235695;1196;138876;-58
2021/09/18 08:32:39;;;;;;;6.30;4.90;;;;;;;14.85;70.09;98572.98;235571;1195;139670;-65
2021/09/18 08:37:42;;;;;;;6.20;5.20;;;;;;;14.86;69.98;98580.56;235763;1195;138523;-65
2021/09/18 08:42:45;;;;;;;9.30;5.90;;;;;;;14.79;70.00;98576.52;236145;1195;138556;-64
2021/09/18 08:47:49;;;;;;;6.00;4.80;;;;;;;14.76;70.03;98584.81;235738;1195;139238;-66
2021/09/18 08:52:53;;;;;;;182.70;134.20;;;;;;;14.77;70.04;98581.58;235699;1196;139486;-67
2021/09/18 08:57:56;;;;;;;7.50;6.30;;;;;;;14.84;69.93;98588.08;235450;1195;139424;-63
2021/09/18 09:03:07;;;;;;;6.70;5.40;;;;;;;14.87;69.87;98585.85;235905;1195;138494;-64
2021/09/18 09:08:14;;;;;;;5.80;5.20;;;;;;;14.87;69.70;98583.88;235966;1195;140526;-63
2021/09/18 09:13:21;;;;;;;6.60;3.50;;;;;;;14.87;69.77;98581.75;235858;1195;139375;-64
2021/09/18 09:18:27;;;;;;;140.70;85.30;;;;;;;14.89;69.67;98579.11;235823;1195;139523;-65
2021/09/18 09:23:33;;;;;;;7.60;5.50;;;;;;;15.00;69.97;98578.52;235538;1196;140601;-63
2021/09/18 09:28:39;;;;;;;5.00;4.10;;;;;;;15.10;69.55;98575.05;236018;1195;139790;-63
2021/09/18 09:34:01;;;;;;;;;;;;;;;15.17;69.28;98578.63;235859;1195;138574;-63
2021/09/18 09:39:06;;;;;;;5.90;4.00;;;;;;;15.11;68.85;98572.48;235971;1195;124765;-65
2021/09/18 09:44:11;;;;;;;;;;;;;;;15.10;69.00;98573.27;236070;1194;138466;-62
2021/09/18 09:49:15;;;;;;;4.80;3.60;;;;;;;15.14;68.68;98575.27;235855;1195;126016;-62
2021/09/18 09:54:20;;;;;;;4.60;3.50;;;;;;;15.17;68.85;98569.67;235618;1195;139303;-64
2021/09/18 09:59:28;;;;;;;5.30;3.50;;;;;;;15.21;68.74;98570.71;236039;1195;139038;-64
2021/09/18 10:04:31;;;;;;;123.10;73.50;;;;;;;15.21;68.40;98563.38;235752;1195;138960;-64
2021/09/18 10:09:36;;;;;;;7.40;4.10;;;;;;;15.22;68.51;98569.40;235381;1195;139443;-63
2021/09/18 10:14:46;;;;;;;3.80;3.50;;;;;;;15.23;68.13;98561.78;235541;1195;138532;-65
2021/09/18 10:24:53;;;;;;;5.60;3.90;;;;;;;15.32;67.98;98558.50;235886;1195;138174;-62
2021/09/18 10:29:57;;;;;;;5.40;3.00;;;;;;;15.35;67.98;98559.48;236032;1195;139059;-65
2021/09/18 10:35:11;;;;;;;5.30;2.80;;;;;;;15.43;68.00;98563.92;235985;1195;140875;-62
2021/09/18 10:40:16;;;;;;;5.10;3.10;;;;;;;15.51;67.81;98562.69;236080;1195;138355;-64
2021/09/18 10:45:39;;;;;;;4.20;2.40;;;;;;;15.55;67.53;98569.27;235798;1196;138421;-63
2021/09/18 10:50:44;;;;;;;4.50;2.10;;;;;;;15.57;67.32;98572.52;235925;1195;139351;-63
2021/09/18 10:55:54;;;;;;;2.00;1.60;;;;;;;15.56;67.28;98570.30;235773;1195;138174;-64
2021/09/18 11:01:00;;;;;;;3.50;1.70;;;;;;;15.57;67.08;98571.83;236151;1195;139478;-63
2021/09/18 11:06:04;;;;;;;4.60;2.00;;;;;;;15.62;67.36;98572.23;236120;1195;139324;-61
2021/09/18 11:11:14;;;;;;;3.20;1.90;;;;;;;15.73;67.32;98567.50;236161;1194;139116;-62
2021/09/18 11:16:21;;;;;;;3.10;1.80;;;;;;;15.75;66.99;98568.05;236045;1195;138401;-61
2021/09/18 11:21:28;;;;;;;4.40;1.70;;;;;;;15.71;66.94;98570.94;236157;1195;138780;-64
2021/09/18 11:26:46;;;;;;;3.40;1.80;;;;;;;15.64;66.77;98571.16;235957;1195;138697;-64
2021/09/18 11:32:12;;;;;;;2.50;1.80;;;;;;;15.65;66.99;98572.70;235944;1195;139703;-62
2021/09/18 11:37:35;;;;;;;4.20;2.00;;;;;;;15.72;66.96;98574.63;235896;1195;138865;-64
2021/09/18 11:42:41;;;;;;;3.00;2.20;;;;;;;15.77;67.04;98577.84;235895;1195;138572;-63
2021/09/18 11:47:49;;;;;;;2.00;1.60;;;;;;;15.80;66.72;98569.73;236013;1195;138721;-63
2021/09/18 11:53:01;;;;;;;4.30;1.90;;;;;;;15.81;66.57;98571.10;236071;1195;138257;-63
2021/09/18 11:58:23;;;;;;;3.20;1.80;;;;;;;15.79;66.78;98575.88;236099;1195;138565;-62
2021/09/18 12:03:28;;;;;;;3.70;1.50;;;;;;;15.77;66.50;98575.20;235961;1195;140042;-64
2021/09/18 12:08:34;;;;;;;4.10;1.80;;;;;;;15.74;66.38;98574.20;235949;1195;139139;-61
2021/09/18 12:13:46;;;;;;;2.90;1.80;;;;;;;15.78;66.32;98578.30;235718;1196;138441;-63
2021/09/18 12:18:52;;;;;;;3.20;1.70;;;;;;;15.79;66.33;98577.73;235678;1196;138727;-63
2021/09/18 12:23:56;;;;;;;;;;;;;;;15.75;66.17;98585.08;235971;1195;139148;-62
2021/09/18 12:29:14;;;;;;;7.50;4.40;;;;;;;15.69;66.27;98581.89;235900;1195;125137;-66
2021/09/18 12:34:23;;;;;;;5.10;1.60;;;;;;;15.70;66.19;98581.57;236030;1195;138529;-63
2021/09/18 12:39:27;;;;;;;5.50;1.60;;;;;;;15.65;65.93;98579.16;235509;1196;139222;-61
2021/09/18 12:44:38;;;;;;;5.00;1.70;;;;;;;15.64;65.97;98578.14;235833;1195;139442;-64
2021/09/18 12:49:41;;;;;;;3.20;1.70;;;;;;;15.63;65.93;98578.39;235781;1196;138743;-64
2021/09/18 12:54:47;;;;;;;4.30;2.00;;;;;;;15.62;65.93;98575.64;235263;1195;138806;-62
2021/09/18 12:59:50;;;;;;;3.10;2.00;;;;;;;15.62;65.89;98572.10;235879;1195;138563;-61
2021/09/18 13:04:54;;;;;;;3.50;1.50;;;;;;;15.61;65.89;98570.88;235291;1188;138359;-63
2021/09/18 13:09:59;;;;;;;11.50;7.80;;;;;;;15.63;65.77;98570.34;235837;1195;138776;-64
2021/09/18 13:15:10;;;;;;;5.50;2.30;;;;;;;15.68;65.79;98572.31;235879;1195;139151;-65
2021/09/18 13:20:17;;;;;;;2.90;1.80;;;;;;;15.72;65.73;98568.27;236236;1195;138211;-62
2021/09/18 13:25:20;;;;;;;4.70;2.10;;;;;;;15.80;65.61;98564.52;236180;1195;138311;-61
2021/09/18 13:30:23;;;;;;;1.90;1.60;;;;;;;15.81;65.52;98564.95;236161;1195;138572;-63
2021/09/18 13:35:26;;;;;;;2.80;2.10;;;;;;;15.86;65.45;98559.55;236476;1193;139557;-63
2021/09/18 13:40:29;;;;;;;42.80;34.60;;;;;;;15.88;65.40;98555.10;236640;1195;140041;-65
2021/09/18 13:45:33;;;;;;;3.60;2.00;;;;;;;15.96;65.07;98554.36;236424;1195;140017;-60
2021/09/18 13:50:38;;;;;;;4.70;2.80;;;;;;;15.98;64.99;98553.09;236255;1196;138759;-62
2021/09/18 13:55:41;;;;;;;2.50;1.80;;;;;;;15.98;64.66;98546.41;236653;1195;138511;-64
2021/09/18 14:00:45;;;;;;;4.30;1.90;;;;;;;15.99;64.69;98543.65;236520;1195;138028;-61
2021/09/18 14:05:48;;;;;;;3.30;2.10;;;;;;;16.00;64.52;98534.81;236532;1195;138479;-66
2021/09/18 14:10:52;;;;;;;3.10;1.70;;;;;;;15.99;64.68;98528.21;236705;1194;138837;-62
2021/09/18 14:15:55;;;;;;;2.60;1.80;;;;;;;16.02;64.65;98534.80;236475;1195;138635;-63
2021/09/18 14:20:59;;;;;;;16.20;11.30;;;;;;;16.05;64.73;98533.11;236238;1195;139638;-61
2021/09/18 14:26:02;;;;;;;6.00;2.30;;;;;;;16.12;64.66;98535.27;236430;1195;139465;-64
2021/09/18 14:31:05;;;;;;;5.90;1.70;;;;;;;16.14;64.56;98529.96;236505;1195;139223;-63
2021/09/18 14:36:09;;;;;;;3.20;1.90;;;;;;;16.13;64.44;98526.46;236553;1195;138534;-62
2021/09/18 14:41:11;;;;;;;3.50;1.70;;;;;;;16.11;64.53;98520.91;236614;1194;138621;-63
2021/09/18 14:46:15;;;;;;;3.40;1.90;;;;;;;16.08;64.40;98517.23;236484;1195;138802;-66
2021/09/18 14:51:18;;;;;;;4.00;1.90;;;;;;;16.06;64.36;98516.19;236571;1195;138626;-62
2021/09/18 14:56:21;;;;;;;3.40;1.90;;;;;;;16.02;64.32;98518.30;236519;1195;139431;-63
2021/09/18 15:01:24;;;;;;;2.30;1.30;;;;;;;16.01;64.40;98522.91;236485;1195;138539;-66
2021/09/18 15:06:28;;;;;;;4.20;1.80;;;;;;;16.00;64.41;98522.66;236368;1195;139412;-62
2021/09/18 15:11:31;;;;;;;6.90;2.10;;;;;;;16.02;64.36;98517.27;236505;1195;138389;-61
2021/09/18 15:16:34;;;;;;;2.30;1.70;;;;;;;16.03;64.21;98513.60;236660;1195;139680;-62
2021/09/18 15:21:38;;;;;;;4.40;1.90;;;;;;;16.04;64.30;98516.73;236568;1195;138323;-62
2021/09/18 15:26:41;;;;;;;3.30;2.00;;;;;;;16.04;64.41;98516.41;236444;1195;138528;-62
2021/09/18 15:31:44;;;;;;;4.40;1.80;;;;;;;16.01;64.27;98517.71;236428;1195;138160;-62
2021/09/18 15:36:47;;;;;;;3.90;2.10;;;;;;;15.98;64.32;98515.27;236233;1195;139296;-62
2021/09/18 15:41:51;;;;;;;2.80;2.10;;;;;;;15.95;64.32;98512.72;236563;1194;138043;-62
2021/09/18 15:46:54;;;;;;;3.40;1.80;;;;;;;15.96;64.32;98511.75;236286;1196;138897;-66
2021/09/18 15:51:57;;;;;;;11.50;5.80;;;;;;;15.98;64.49;98508.27;235996;1196;139152;-67
2021/09/18 15:57:00;;;;;;;6.60;2.80;;;;;;;16.02;64.82;98509.05;236527;1195;138886;-61
2021/09/18 16:02:03;;;;;;;3.70;2.40;;;;;;;16.05;64.89;98509.66;236615;1195;139608;-64
2021/09/18 16:07:07;;;;;;;3.50;2.40;;;;;;;16.04;64.97;98512.81;236505;1195;138295;-62
2021/09/18 16:12:10;;;;;;;4.70;2.40;;;;;;;16.03;65.06;98511.61;236576;1195;139134;-62
2021/09/18 16:17:13;;;;;;;6.00;3.00;;;;;;;15.97;64.97;98507.38;236471;1195;138387;-61
2021/09/18 16:22:17;;;;;;;3.80;2.50;;;;;;;15.89;65.01;98506.98;236784;1195;138250;-59
2021/09/18 16:27:20;;;;;;;3.70;2.50;;;;;;;15.85;65.16;98507.73;236484;1195;138401;-64
2021/09/18 16:32:23;;;;;;;3.80;2.30;;;;;;;15.84;65.46;98511.77;236607;1195;139492;-63
2021/09/18 16:37:26;;;;;;;6.60;3.30;;;;;;;15.83;65.69;98515.21;236519;1195;138213;-61
2021/09/18 16:42:29;;;;;;;5.20;3.30;;;;;;;15.81;65.53;98518.98;236597;1195;138924;-63
2021/09/18 16:47:32;;;;;;;5.40;3.40;;;;;;;15.80;65.73;98519.42;236555;1195;138705;-61
2021/09/18 16:52:36;;;;;;;6.80;3.50;;;;;;;15.78;65.85;98520.91;236660;1195;139151;-62
2021/09/18 16:57:40;;;;;;;6.50;3.00;;;;;;;15.70;65.96;98522.17;236464;1195;138282;-62
2021/09/18 17:02:43;;;;;;;4.40;3.20;;;;;;;15.62;66.37;98521.96;236616;1195;139406;-63
2021/09/18 17:07:49;;;;;;;6.20;3.50;;;;;;;15.58;66.41;98527.01;236176;1195;138571;-64
2021/09/18 17:12:52;;;;;;;6.60;4.10;;;;;;;15.53;66.69;98523.16;236246;1195;138423;-65
2021/09/18 17:17:56;;;;;;;5.90;4.50;;;;;;;15.38;66.74;98522.92;236446;1195;138472;-62
2021/09/18 17:22:59;;;;;;;7.80;4.70;;;;;;;15.26;67.27;98524.31;236773;1194;138262;-62
2021/09/18 17:28:02;;;;;;;7.70;3.90;;;;;;;15.25;67.51;98525.20;235960;1195;140156;-63
2021/09/18 17:33:05;;;;;;;6.00;4.00;;;;;;;15.19;67.63;98527.48;236538;1194;139208;-63
2021/09/18 17:38:08;;;;;;;7.00;4.50;;;;;;;15.13;68.06;98526.95;236421;1194;138421;-62
2021/09/18 17:43:12;;;;;;;7.30;4.30;;;;;;;15.10;68.14;98533.27;236479;1195;138883;-63
2021/09/18 17:48:15;;;;;;;6.50;3.60;;;;;;;15.06;68.26;98537.26;236536;1195;138731;-62
2021/09/18 17:53:20;;;;;;;5.40;3.70;;;;;;;14.98;68.40;98535.76;236571;1195;140448;-62
2021/09/18 17:58:23;;;;;;;6.30;3.80;;;;;;;15.00;68.52;98539.69;236787;1194;139192;-63
2021/09/18 18:03:26;;;;;;;5.60;4.10;;;;;;;14.99;68.81;98542.33;236547;1195;138895;-62
2021/09/18 18:08:29;;;;;;;4.70;3.90;;;;;;;14.95;68.99;98544.11;236456;1195;138755;-63
2021/09/18 18:13:32;;;;;;;6.30;4.00;;;;;;;14.91;68.98;98544.63;236665;1195;139149;-64
2021/09/18 18:18:35;;;;;;;7.70;4.40;;;;;;;14.89;69.33;98546.52;236526;1195;139603;-62
2021/09/18 18:23:38;;;;;;;7.90;4.60;;;;;;;14.93;69.43;98548.73;236544;1195;138876;-64
2021/09/18 18:28:41;;;;;;;20.50;16.70;;;;;;;14.96;69.71;98548.81;236738;1195;138971;-67
2021/09/18 18:33:45;;;;;;;7.80;5.40;;;;;;;14.90;69.71;98545.21;236283;1195;139776;-70
2021/09/18 18:38:48;;;;;;;6.50;4.80;;;;;;;14.83;69.85;98544.89;236390;1195;139358;-66
2021/09/18 18:43:51;;;;;;;6.90;4.50;;;;;;;14.83;70.14;98546.05;236540;1195;139161;-66
2021/09/18 18:48:54;;;;;;;7.00;5.20;;;;;;;14.87;70.29;98549.56;236605;1195;139108;-63
2021/09/18 18:53:57;;;;;;;7.20;6.00;;;;;;;14.88;70.48;98547.88;236705;1195;138027;-66
2021/09/18 18:59:01;;;;;;;8.30;6.30;;;;;;;14.88;70.67;98549.31;236761;1195;138373;-66
2021/09/18 19:04:04;;;;;;;7.20;5.60;;;;;;;14.88;70.66;98558.29;236668;1195;138508;-70
2021/09/18 19:09:08;;;;;;;6.90;4.90;;;;;;;14.89;70.82;98571.02;236412;1195;139102;-69
2021/09/18 19:14:12;;;;;;;3.20;2.00;;;;;;;14.92;70.93;98572.40;235788;1196;139108;-70
2021/09/18 19:19:15;;;;;;;2.40;1.80;;;;;;;14.93;70.74;98576.80;236387;1195;138440;-71
2021/09/18 19:24:21;;;;;;;2.90;2.20;;;;;;;14.85;70.41;98578.33;236759;1195;138749;-63
2021/09/18 19:29:29;;;;;;;2.80;2.50;;;;;;;14.74;70.33;98577.86;236689;1195;139007;-64
2021/09/18 19:34:33;;;;;;;3.10;2.10;;;;;;;14.65;70.35;98587.57;236395;1190;138153;-65
2021/09/18 19:39:36;;;;;;;3.20;2.30;;;;;;;14.58;70.30;98584.98;236081;1195;139004;-64
2021/09/18 19:44:39;;;;;;;3.40;2.90;;;;;;;14.56;70.45;98582.14;236542;1195;138863;-65
2021/09/18 19:49:42;;;;;;;4.80;3.40;;;;;;;14.56;70.49;98580.45;236466;1195;138405;-64
2021/09/18 19:54:45;;;;;;;3.70;3.00;;;;;;;14.53;70.42;98579.92;236267;1196;138659;-66
2021/09/18 19:59:49;;;;;;;4.20;2.30;;;;;;;14.49;70.36;98584.34;236165;1195;138875;-66
2021/09/18 20:04:52;;;;;;;3.90;2.60;;;;;;;14.46;70.36;98587.98;236605;1195;139341;-64
2021/09/18 20:09:55;;;;;;;5.90;2.90;;;;;;;14.42;70.37;98591.80;236517;1194;139254;-66
2021/09/18 20:14:59;;;;;;;4.60;2.40;;;;;;;14.41;70.34;98588.57;236585;1194;138990;-65
2021/09/18 20:20:04;;;;;;;3.30;2.90;;;;;;;14.37;70.38;98594.41;236250;1195;138551;-66
2021/09/18 20:25:08;;;;;;;2.30;2.10;;;;;;;14.31;70.46;98592.42;236286;1195;138601;-65
2021/09/18 20:30:11;;;;;;;2.50;2.20;;;;;;;14.27;70.53;98589.91;236507;1187;139391;-65
2021/09/18 20:35:15;;;;;;;2.70;2.20;;;;;;;14.27;70.36;98599.73;236360;1195;138900;-64
2021/09/18 20:40:18;;;;;;;2.40;2.10;;;;;;;14.27;70.41;98591.35;236408;1195;138602;-64
2021/09/18 20:45:21;;;;;;;3.00;2.50;;;;;;;14.26;70.25;98595.71;236440;1195;138641;-69
2021/09/18 20:50:25;;;;;;;1.90;1.70;;;;;;;14.20;70.33;98596.90;236409;1195;138833;-64
2021/09/18 20:55:28;;;;;;;5.60;1.90;;;;;;;14.18;70.45;98596.94;236175;1195;139311;-64
2021/09/18 21:00:37;;;;;;;2.20;2.00;;;;;;;14.15;70.44;98598.75;236322;1195;138793;-63
2021/09/18 21:05:40;;;;;;;2.90;2.20;;;;;;;14.14;70.56;98596.36;235966;1196;138173;-64
2021/09/18 21:10:43;;;;;;;3.70;2.80;;;;;;;14.09;70.41;98598.89;236343;1195;139760;-66
2021/09/18 21:15:47;;;;;;;3.00;2.50;;;;;;;14.02;70.48;98600.78;236178;1195;138391;-65
2021/09/18 21:20:51;;;;;;;6.70;4.50;;;;;;;13.98;70.71;98599.86;236461;1195;138999;-65
2021/09/18 21:25:55;;;;;;;2.90;2.60;;;;;;;13.97;70.54;98600.83;236024;1196;138564;-64
2021/09/18 21:30:58;;;;;;;4.40;3.00;;;;;;;13.98;70.76;98599.16;235329;1196;138434;-66
2021/09/18 21:36:02;;;;;;;3.60;2.60;;;;;;;13.98;70.67;98598.40;235802;1195;138303;-65
2021/09/18 21:41:05;;;;;;;3.00;2.30;;;;;;;13.98;70.83;98598.60;236258;1195;138565;-66
2021/09/18 21:46:09;;;;;;;3.50;2.10;;;;;;;13.97;70.82;98603.29;236016;1196;139886;-65
2021/09/18 21:51:12;;;;;;;2.60;2.20;;;;;;;13.97;70.95;98605.11;236084;1196;138811;-64
2021/09/18 21:56:15;;;;;;;4.20;2.10;;;;;;;13.97;70.95;98598.31;236515;1195;138709;-67
2021/09/18 22:01:29;;;;;;;4.20;2.20;;;;;;;13.95;70.91;98603.11;235487;1195;140051;-63
2021/09/18 22:06:36;;;;;;;2.80;1.90;;;;;;;13.91;70.86;98606.11;236767;1195;141029;-64
2021/09/18 22:11:39;;;;;;;2.70;1.80;;;;;;;13.86;70.80;98608.80;236355;1195;139212;-64
2021/09/18 22:16:44;;;;;;;2.70;2.40;;;;;;;13.83;70.77;98606.63;236121;1189;139692;-63
2021/09/18 22:21:47;;;;;;;3.20;2.60;;;;;;;13.80;70.79;98609.56;236498;1195;138252;-64
2021/09/18 22:26:50;;;;;;;3.10;2.50;;;;;;;13.77;70.74;98613.36;236143;1195;139635;-69
2021/09/18 22:31:54;;;;;;;2.50;2.20;;;;;;;13.73;70.83;98615.41;236097;1195;138247;-66
2021/09/18 22:36:57;;;;;;;7.80;5.30;;;;;;;13.72;70.96;98622.27;236132;1195;140127;-64
2021/09/18 22:42:01;;;;;;;3.80;2.50;;;;;;;13.71;70.87;98620.91;236204;1196;139026;-63
2021/09/18 22:47:04;;;;;;;3.10;2.60;;;;;;;13.72;71.05;98619.58;236280;1195;138184;-63
2021/09/18 22:52:07;;;;;;;4.00;2.60;;;;;;;13.70;70.91;98616.23;235935;1195;137825;-63
2021/09/18 22:57:10;;;;;;;3.30;2.70;;;;;;;13.68;70.89;98615.18;235753;1195;138552;-64
2021/09/18 23:02:15;;;;;;;2.70;2.20;;;;;;;13.62;70.82;98604.79;236426;1195;138649;-64
2021/09/18 23:07:18;;;;;;;3.60;2.50;;;;;;;13.61;70.95;98605.56;235878;1195;139185;-63
2021/09/18 23:12:23;;;;;;;6.00;4.40;;;;;;;13.62;70.98;98603.70;236069;1196;140797;-64
2021/09/18 23:17:27;;;;;;;;;;;;;;;13.67;71.05;98609.29;235957;1195;141055;-66
2021/09/18 23:22:33;;;;;;;3.90;2.40;;;;;;;13.67;71.06;98611.23;236299;1195;124711;-65